KSRB

Upper Cumberland Regional Airport

Sparta, Tennessee, USA
METAR KSRB 170055Z AUTO 00000KT M1/4SM FG OVC002 05/05 A3017 RMK A01
Observed Flight Rules
Dec-17 @ 00:55 UTC (35 minutes ago) Instrument Flight Rules
Visibility Clouds Conditions
1/4 miles
  • Overcast at 200' AGL
  • Fog
Temperatures Readings
Current 5°C / 41°F
Dewpoint 5°C / 41°F
Humidity 100%
Altimeter 30.17" Hg
Pressure 1022 hPa
Elevation 313
METAR KSRB 170055Z AUTO 00000KT M1/4SM FG OVC002 05/05 A3017 RMK A01
Observed Flight Rules
Dec-17 @ 00:55 UTC
(35 minutes ago)
LIFR
Clouds
  • Overcast at 200' AGL
Conditions
  • Fog
Temperature Dewpoint
5°C / 41°F 5°C / 41°F
Humidity Altimeter Pressure
100% 30.17" Hg 1022 hPa